Time;durP1;ratioP1;P1;durP2;ratioP2;P2;SDS_P1;SDS_P2;PMS_P1;PMS_P2;Temp;Humidity;BMP_temperature;BMP_pressure;BME280_temperature;BME280_humidity;BME280_pressure;Samples;Min_cycle;Max_cycle;Signal;HPM_P1;HPM_P2
2024/02/22 00:04:58;;;;;;;44.20;21.20;;;;;;;5.32;100.00;99778.25;213650;1288;139016;-86
2024/02/22 00:10:00;;;;;;;49.10;22.50;;;;;;;5.30;100.00;99767.21;212969;1287;141193;-86
2024/02/22 00:15:00;;;;;;;43.10;22.20;;;;;;;5.27;100.00;99761.38;213541;1285;140787;-86
2024/02/22 00:20:03;;;;;;;45.80;24.20;;;;;;;5.23;100.00;99751.31;213034;1285;139985;-86
2024/02/22 00:25:04;;;;;;;52.60;22.50;;;;;;;5.19;100.00;99737.45;213655;1285;139853;-86
2024/02/22 00:30:12;;;;;;;41.90;21.80;;;;;;;5.16;100.00;99728.50;212854;1290;140282;-86
2024/02/22 00:35:12;;;;;;;45.70;23.30;;;;;;;5.14;100.00;99721.13;213554;1285;139073;-86
2024/02/22 00:40:17;;;;;;;44.20;24.20;;;;;;;5.13;100.00;99713.15;213143;1288;140336;-87
2024/02/22 00:45:17;;;;;;;49.90;24.00;;;;;;;5.11;100.00;99705.72;213655;1285;139012;-86
2024/02/22 00:50:18;;;;;;;41.70;23.60;;;;;;;5.09;100.00;99697.35;212849;1287;139902;-86
2024/02/22 00:55:19;;;;;;;53.00;24.90;;;;;;;5.08;100.00;99689.59;213398;1288;139010;-88
2024/02/22 01:00:19;;;;;;;44.10;24.30;;;;;;;5.06;100.00;99679.65;213186;1287;139646;-89
2024/02/22 01:05:20;;;;;;;49.60;23.30;;;;;;;5.05;100.00;99671.86;213828;1285;140023;-86
2024/02/22 01:10:21;;;;;;;45.20;24.20;;;;;;;5.03;100.00;99659.42;213405;1285;139934;-86
2024/02/22 01:15:21;;;;;;;48.70;26.50;;;;;;;5.02;100.00;99655.19;213827;1285;139058;-86
2024/02/22 01:20:22;;;;;;;51.30;25.50;;;;;;;5.01;100.00;99643.88;213282;1285;139822;-86
2024/02/22 01:25:22;;;;;;;50.20;23.90;;;;;;;5.01;100.00;99640.90;213741;1289;139800;-86
2024/02/22 01:30:22;;;;;;;53.30;25.00;;;;;;;5.00;100.00;99632.70;213373;1285;140085;-86
2024/02/22 01:35:23;;;;;;;50.60;23.20;;;;;;;5.01;100.00;99627.42;213954;1286;139488;-86
2024/02/22 01:40:23;;;;;;;46.20;24.30;;;;;;;5.03;100.00;99616.64;213106;1286;139841;-86
2024/02/22 01:45:24;;;;;;;40.00;22.60;;;;;;;5.04;100.00;99608.20;213594;1291;140082;-86
2024/02/22 01:50:24;;;;;;;50.60;24.40;;;;;;;5.06;100.00;99595.21;213290;1291;142118;-86
2024/02/22 01:55:26;;;;;;;45.00;23.80;;;;;;;5.08;100.00;99587.20;213630;1285;139777;-86
2024/02/22 02:00:27;;;;;;;50.10;24.00;;;;;;;5.09;100.00;99583.88;213095;1288;140259;-86
2024/02/22 02:05:27;;;;;;;42.40;20.70;;;;;;;5.10;100.00;99576.12;213859;1285;138883;-86
2024/02/22 02:10:28;;;;;;;41.10;21.30;;;;;;;5.12;100.00;99567.52;213033;1291;139853;-86
2024/02/22 02:15:29;;;;;;;39.10;22.10;;;;;;;5.13;100.00;99553.65;213520;1287;139680;-86
2024/02/22 02:20:36;;;;;;;107.60;38.70;;;;;;;5.14;100.00;99551.33;213086;1285;140461;-86
2024/02/22 02:25:36;;;;;;;55.60;23.30;;;;;;;5.12;100.00;99540.63;213925;1289;139131;-85
2024/02/22 02:30:37;;;;;;;48.30;22.80;;;;;;;5.12;100.00;99527.47;213490;1285;140338;-85
2024/02/22 02:35:37;;;;;;;45.80;23.10;;;;;;;5.13;100.00;99525.59;213913;1285;139111;-85
2024/02/22 02:40:38;;;;;;;49.40;23.10;;;;;;;5.12;100.00;99519.35;213418;1285;139975;-86
2024/02/22 02:45:38;;;;;;;45.20;21.90;;;;;;;5.12;100.00;99499.08;213962;1286;139271;-85
2024/02/22 02:50:39;;;;;;;39.60;19.60;;;;;;;5.12;100.00;99498.48;213341;1291;140079;-85
2024/02/22 02:55:39;;;;;;;41.80;20.80;;;;;;;5.14;100.00;99488.69;214119;1289;139486;-85
2024/02/22 03:00:40;;;;;;;36.90;18.80;;;;;;;5.16;100.00;99478.52;213460;1291;140689;-86
2024/02/22 03:05:40;;;;;;;38.40;20.50;;;;;;;5.18;100.00;99469.73;213858;1285;138940;-86
2024/02/22 03:10:41;;;;;;;41.30;19.40;;;;;;;5.20;100.00;99465.56;213195;1285;140692;-86
2024/02/22 03:15:41;;;;;;;39.30;19.90;;;;;;;5.23;100.00;99464.92;213879;1286;139670;-86
2024/02/22 03:20:42;;;;;;;32.40;17.90;;;;;;;5.26;100.00;99452.17;213123;1285;140651;-86
2024/02/22 03:25:43;;;;;;;35.30;18.80;;;;;;;5.29;100.00;99447.31;213799;1285;139411;-86
2024/02/22 03:30:43;;;;;;;39.70;18.00;;;;;;;5.31;100.00;99441.45;212966;1287;140007;-86
2024/02/22 03:35:44;;;;;;;36.90;18.10;;;;;;;5.35;100.00;99426.67;213331;1289;138779;-85
2024/02/22 03:40:44;;;;;;;33.40;17.50;;;;;;;5.38;100.00;99422.14;213114;1285;140682;-85
2024/02/22 03:45:45;;;;;;;31.90;16.40;;;;;;;5.41;100.00;99421.79;213672;1291;138826;-86
2024/02/22 03:50:46;;;;;;;31.80;15.30;;;;;;;5.44;100.00;99411.24;213158;1286;140253;-86
2024/02/22 03:55:46;;;;;;;35.40;16.50;;;;;;;5.48;100.00;99407.23;213701;1288;138915;-86
2024/02/22 04:00:47;;;;;;;31.80;15.50;;;;;;;5.51;100.00;99396.84;212916;1291;140014;-86
2024/02/22 04:05:47;;;;;;;31.30;16.20;;;;;;;5.54;100.00;99396.42;213244;1286;139045;-85
2024/02/22 04:10:47;;;;;;;33.00;16.10;;;;;;;5.58;100.00;99389.63;212995;1295;139960;-86
2024/02/22 04:15:49;;;;;;;29.60;16.00;;;;;;;5.63;100.00;99386.02;213456;1287;139091;-85
2024/02/22 04:20:49;;;;;;;28.20;15.20;;;;;;;5.67;100.00;99375.93;212957;1287;140217;-85
2024/02/22 04:25:50;;;;;;;31.60;14.80;;;;;;;5.69;100.00;99371.84;213521;1292;139189;-85
2024/02/22 04:30:50;;;;;;;26.40;13.70;;;;;;;5.74;100.00;99368.08;213153;1287;139713;-86
2024/02/22 04:35:53;;;;;;;32.40;14.90;;;;;;;5.77;100.00;99354.02;213553;1292;138539;-86
2024/02/22 04:40:53;;;;;;;30.60;16.20;;;;;;;5.80;100.00;99348.35;213387;1291;140832;-85
2024/02/22 04:45:53;;;;;;;28.80;14.10;;;;;;;5.83;100.00;99337.41;213795;1290;138863;-86
2024/02/22 04:50:54;;;;;;;28.90;13.60;;;;;;;5.85;100.00;99330.96;213047;1290;139583;-86
2024/02/22 04:55:54;;;;;;;26.80;14.50;;;;;;;5.88;100.00;99318.92;213522;1287;138909;-86
2024/02/22 05:00:55;;;;;;;25.10;13.00;;;;;;;5.91;100.00;99309.74;213189;1290;141151;-86
2024/02/22 05:05:56;;;;;;;25.70;13.00;;;;;;;5.93;100.00;99295.26;213551;1289;138760;-85
2024/02/22 05:10:57;;;;;;;28.50;14.10;;;;;;;5.96;100.00;99286.08;213276;1288;139804;-86
2024/02/22 05:15:57;;;;;;;24.80;13.40;;;;;;;5.99;100.00;99276.98;213857;1285;139249;-85
2024/02/22 05:21:00;;;;;;;25.20;12.50;;;;;;;6.04;100.00;99274.08;212935;1286;139850;-85
2024/02/22 05:26:01;;;;;;;23.30;12.30;;;;;;;6.08;100.00;99268.42;213536;1299;139516;-85
2024/02/22 05:31:03;;;;;;;29.00;11.90;;;;;;;6.12;100.00;99269.09;212906;1286;140570;-86
2024/02/22 05:36:04;;;;;;;23.40;11.80;;;;;;;6.16;100.00;99259.45;213685;1286;97983;-85
2024/02/22 05:41:04;;;;;;;21.70;12.00;;;;;;;6.20;100.00;99252.84;212925;1287;139257;-87
2024/02/22 05:46:05;;;;;;;27.40;11.50;;;;;;;6.24;100.00;99237.59;213358;1286;139116;-86
2024/02/22 05:51:05;;;;;;;24.50;11.60;;;;;;;6.30;100.00;99229.46;212931;1287;139815;-87
2024/02/22 05:56:06;;;;;;;21.30;11.00;;;;;;;6.32;100.00;99222.98;213413;1291;138956;-86
2024/02/22 06:01:07;;;;;;;21.80;11.80;;;;;;;6.34;100.00;99217.77;213133;1291;139902;-86
2024/02/22 06:06:07;;;;;;;26.20;10.70;;;;;;;6.37;100.00;99204.28;213919;1289;98049;-87
2024/02/22 06:11:09;;;;;;;19.90;9.50;;;;;;;6.44;100.00;99197.88;213711;1285;141054;-87
2024/02/22 06:16:10;;;;;;;17.50;9.30;;;;;;;6.49;100.00;99191.66;213956;1291;138969;-86
2024/02/22 06:21:13;;;;;;;24.10;10.10;;;;;;;6.56;100.00;99190.54;213170;1288;139268;-87
2024/02/22 06:26:14;;;;;;;23.30;12.00;;;;;;;6.61;100.00;99192.05;213155;1286;139601;-86
2024/02/22 06:31:14;;;;;;;19.40;10.10;;;;;;;6.65;100.00;99195.05;213747;1289;139127;-87
2024/02/22 06:36:15;;;;;;;21.80;9.70;;;;;;;6.69;100.00;99191.17;213392;1288;141906;-85
2024/02/22 06:41:18;;;;;;;23.60;9.20;;;;;;;6.74;100.00;99180.90;213536;1286;138666;-87
2024/02/22 06:46:20;;;;;;;18.20;7.40;;;;;;;6.79;100.00;99172.88;212970;1290;164663;-88
2024/02/22 06:51:21;;;;;;;18.90;7.70;;;;;;;6.85;100.00;99164.56;213434;1292;139167;-88
2024/02/22 06:56:23;;;;;;;18.30;7.40;;;;;;;6.91;100.00;99157.56;213037;1291;140182;-86
2024/02/22 07:01:24;;;;;;;14.80;7.30;;;;;;;6.98;100.00;99150.02;213516;1285;138659;-85
2024/02/22 07:06:27;;;;;;;13.30;6.90;;;;;;;7.03;100.00;99142.07;213377;1285;140565;-89
2024/02/22 07:11:29;;;;;;;13.80;6.60;;;;;;;7.10;100.00;99143.19;215360;1288;138748;-88
2024/02/22 07:16:30;;;;;;;13.60;6.80;;;;;;;7.18;100.00;99142.91;213615;1286;139762;-87
2024/02/22 07:21:34;;;;;;;14.20;5.80;;;;;;;7.25;100.00;99133.17;213857;1286;138906;-89
2024/02/22 07:26:35;;;;;;;12.50;6.80;;;;;;;7.31;100.00;99128.41;213308;1285;139860;-88
2024/02/22 07:31:35;;;;;;;12.00;6.20;;;;;;;7.33;100.00;99111.38;213856;1285;140590;-88
2024/02/22 07:36:36;;;;;;;19.30;7.00;;;;;;;7.39;100.00;99112.96;213496;1288;140024;-86
2024/02/22 07:41:36;;;;;;;16.40;6.20;;;;;;;7.43;100.00;99100.53;213863;1285;138580;-87
2024/02/22 07:46:38;;;;;;;18.40;6.70;;;;;;;7.48;100.00;99098.28;213368;1285;140536;-86
2024/02/22 07:51:38;;;;;;;16.10;7.20;;;;;;;7.52;100.00;99088.89;213762;1289;138702;-87
2024/02/22 07:56:40;;;;;;;16.60;5.80;;;;;;;7.56;100.00;99078.66;213339;1285;140290;-85
2024/02/22 08:01:41;;;;;;;14.90;5.30;;;;;;;7.62;100.00;99076.40;213965;1291;138728;-90
2024/02/22 08:06:42;;;;;;;16.00;5.70;;;;;;;7.68;100.00;99069.61;213703;1288;139632;-90
2024/02/22 08:11:43;;;;;;;10.90;4.90;;;;;;;7.74;100.00;99060.22;214456;1286;139118;-88
2024/02/22 08:16:43;;;;;;;17.20;6.60;;;;;;;7.80;100.00;99054.58;213796;1287;139876;-89
2024/02/22 08:21:44;;;;;;;17.00;5.30;;;;;;;7.84;100.00;99047.30;214030;1286;138701;-90
2024/02/22 08:26:44;;;;;;;16.90;5.20;;;;;;;7.87;100.00;99043.86;213437;1289;144941;-89
2024/02/22 08:31:45;;;;;;;13.20;5.30;;;;;;;7.90;100.00;99036.73;213944;1285;138830;-89
2024/02/22 08:36:46;;;;;;;13.40;6.10;;;;;;;7.92;100.00;99027.42;213553;1286;141099;-90
2024/02/22 08:41:47;;;;;;;13.70;4.90;;;;;;;7.97;100.00;99017.02;213923;1289;139256;-92
2024/02/22 08:46:47;;;;;;;11.10;5.10;;;;;;;8.00;100.00;99009.09;213428;1288;139868;-91
2024/02/22 08:51:47;;;;;;;11.10;4.90;;;;;;;8.04;100.00;99002.83;213635;1286;138854;-90
2024/02/22 08:56:48;;;;;;;13.60;4.40;;;;;;;8.10;100.00;98994.13;213108;1287;139922;-90
2024/02/22 09:01:48;;;;;;;14.30;4.60;;;;;;;8.14;100.00;98987.23;214048;1288;138634;-90
2024/02/22 09:06:50;;;;;;;12.80;5.00;;;;;;;8.19;100.00;98975.88;214029;1291;139937;-90
2024/02/22 09:11:51;;;;;;;11.40;4.60;;;;;;;8.24;100.00;98973.52;213445;1290;138388;-89
2024/02/22 09:16:51;;;;;;;13.10;4.80;;;;;;;8.28;100.00;98967.80;213681;1286;140189;-90
2024/02/22 09:21:54;;;;;;;11.70;4.80;;;;;;;8.34;100.00;98957.30;214372;1287;138740;-89
2024/02/22 09:26:55;;;;;;;8.70;4.20;;;;;;;8.37;100.00;98949.30;213820;1292;141402;-92
2024/02/22 09:31:56;;;;;;;11.80;4.50;;;;;;;8.42;100.00;98945.82;214194;1286;138667;-90
2024/02/22 09:36:56;;;;;;;12.10;4.60;;;;;;;8.47;100.00;98937.43;213362;1288;139801;-90
2024/02/22 09:41:57;;;;;;;11.40;4.30;;;;;;;8.50;100.00;98939.84;213845;1288;138561;-88
2024/02/22 09:46:58;;;;;;;10.80;4.60;;;;;;;8.53;100.00;98930.50;213741;1285;139761;-90
2024/02/22 09:51:58;;;;;;;10.40;4.70;;;;;;;8.56;100.00;98922.89;214102;1286;139455;-88
2024/02/22 09:56:59;;;;;;;9.40;4.40;;;;;;;8.59;100.00;98926.15;213509;1288;139788;-91
2024/02/22 10:02:05;;;;;;;10.60;4.00;;;;;;;8.60;100.00;98918.72;213631;1287;138496;-90
2024/02/22 10:07:07;;;;;;;11.80;5.30;;;;;;;8.64;100.00;98911.09;213120;1286;140336;-88
2024/02/22 10:12:08;;;;;;;12.00;4.50;;;;;;;8.63;100.00;98908.05;213989;1285;98065;-89
2024/02/22 10:17:09;;;;;;;13.50;5.60;;;;;;;8.61;100.00;98901.79;214368;1289;140421;-88
2024/02/22 10:22:09;;;;;;;14.00;5.60;;;;;;;8.61;100.00;98899.20;213764;1287;139277;-90
2024/02/22 10:27:10;;;;;;;11.30;4.90;;;;;;;8.58;100.00;98891.00;213144;1289;139916;-89
2024/02/22 10:32:20;;;;;;;14.60;5.10;;;;;;;8.56;100.00;98884.20;213480;1290;139218;-88
2024/02/22 10:37:21;;;;;;;10.50;4.60;;;;;;;8.55;100.00;98879.34;213049;1286;140081;-89
2024/02/22 10:42:24;;;;;;;11.70;5.30;;;;;;;8.50;100.00;98866.37;213686;1292;98050;-86
2024/02/22 10:47:27;;;;;;;12.40;5.30;;;;;;;8.45;100.00;98857.92;213149;1286;139924;-88
2024/02/22 10:52:29;;;;;;;12.40;4.90;;;;;;;8.41;100.00;98851.21;213856;1286;138891;-90
2024/02/22 10:57:33;;;;;;;12.20;5.00;;;;;;;8.39;100.00;98837.92;213134;1286;140182;-86
2024/02/22 11:02:34;;;;;;;12.00;5.10;;;;;;;8.38;100.00;98830.88;213722;1287;138890;-86
2024/02/22 11:07:51;;;;;;;11.00;5.50;;;;;;;8.36;100.00;98819.22;213097;1286;140006;-87
2024/02/22 11:12:52;;;;;;;11.80;5.40;;;;;;;8.35;100.00;98812.17;213893;1285;105590;-87
2024/02/22 11:17:55;;;;;;;12.40;5.10;;;;;;;8.34;100.00;98811.24;213348;1286;139710;-86
2024/02/22 11:22:56;;;;;;;13.40;5.90;;;;;;;8.31;100.00;98805.69;213652;1286;138730;-86
2024/02/22 11:28:00;;;;;;;11.50;5.00;;;;;;;8.30;100.00;98795.06;213120;1287;140624;-87
2024/02/22 11:33:01;;;;;;;13.70;5.30;;;;;;;8.28;100.00;98785.99;213723;1286;139278;-89
2024/02/22 11:38:04;;;;;;;14.90;6.90;;;;;;;8.27;100.00;98779.04;213364;1285;139972;-89
2024/02/22 11:43:05;;;;;;;16.10;8.40;;;;;;;8.29;100.00;98770.25;214200;1285;139316;-85
2024/02/22 11:48:05;;;;;;;23.70;11.60;;;;;;;8.28;100.00;98753.34;213641;1285;139472;-90
2024/02/22 11:53:08;;;;;;;25.30;11.40;;;;;;;8.29;100.00;98744.24;213933;1285;138884;-88
2024/02/22 11:58:09;;;;;;;13.60;6.40;;;;;;;8.30;100.00;98734.13;213549;1286;139708;-88
2024/02/22 12:03:10;;;;;;;13.80;6.20;;;;;;;8.30;100.00;98724.81;213854;1286;138855;-88
2024/02/22 12:08:12;;;;;;;15.20;6.90;;;;;;;8.31;100.00;98713.38;213365;1285;140343;-89
2024/02/22 12:13:12;;;;;;;21.60;9.20;;;;;;;8.33;100.00;98706.25;214083;1285;139926;-88
2024/02/22 12:18:17;;;;;;;14.70;6.90;;;;;;;8.36;100.00;98701.29;213645;1285;139634;-89
2024/02/22 12:23:17;;;;;;;13.60;7.00;;;;;;;8.38;100.00;98689.05;213959;1291;139564;-89
2024/02/22 12:28:18;;;;;;;12.00;5.70;;;;;;;8.41;100.00;98686.30;213388;1289;139602;-92
2024/02/22 12:33:23;;;;;;;12.30;6.00;;;;;;;8.43;100.00;98678.35;213848;1289;139207;-89
2024/02/22 12:38:23;;;;;;;11.10;5.50;;;;;;;8.45;100.00;98663.54;213311;1288;140005;-91
2024/02/22 12:43:24;;;;;;;12.30;5.50;;;;;;;8.45;100.00;98651.31;213772;1287;139188;-86
2024/02/22 12:48:24;;;;;;;11.40;6.50;;;;;;;8.46;100.00;98640.91;213147;1286;139900;-87
2024/02/22 12:53:25;;;;;;;13.10;6.50;;;;;;;8.48;100.00;98634.06;213774;1286;138981;-90
2024/02/22 12:58:26;;;;;;;12.50;6.80;;;;;;;8.50;100.00;98620.96;213027;1290;140322;-89
2024/02/22 13:03:28;;;;;;;12.10;5.20;;;;;;;8.51;100.00;98613.98;213728;1287;139174;-87
2024/02/22 13:08:28;;;;;;;9.30;5.60;;;;;;;8.53;100.00;98606.91;213495;1288;140957;-89
2024/02/22 13:13:29;;;;;;;11.20;5.60;;;;;;;8.54;100.00;98604.09;214061;1285;139847;-88
2024/02/22 13:18:29;;;;;;;13.90;6.40;;;;;;;8.55;100.00;98592.56;213804;1285;139835;-87
2024/02/22 13:23:30;;;;;;;12.70;6.90;;;;;;;8.56;100.00;98580.25;214207;1285;139271;-86
2024/02/22 13:28:30;;;;;;;14.40;6.40;;;;;;;8.56;100.00;98575.48;213434;1287;141185;-86
2024/02/22 13:33:31;;;;;;;13.60;6.50;;;;;;;8.57;100.00;98558.61;213880;1287;139899;-87
2024/02/22 13:38:32;;;;;;;13.30;6.70;;;;;;;8.57;100.00;98548.52;213312;1285;140391;-88
2024/02/22 13:43:32;;;;;;;14.10;7.10;;;;;;;8.58;100.00;98539.11;214065;1288;138873;-88
2024/02/22 13:48:35;;;;;;;13.70;7.50;;;;;;;8.60;100.00;98534.30;213562;1287;140213;-85
2024/02/22 13:53:36;;;;;;;15.40;8.90;;;;;;;8.64;100.00;98524.47;213873;1285;139596;-88
2024/02/22 13:58:39;;;;;;;14.50;7.60;;;;;;;8.67;100.00;98510.08;213372;1289;141143;-87
2024/02/22 14:03:40;;;;;;;14.40;8.00;;;;;;;8.68;100.00;98502.56;213801;1288;139550;-87
2024/02/22 14:08:40;;;;;;;14.10;8.40;;;;;;;8.71;100.00;98493.28;213089;1288;139983;-90
2024/02/22 14:13:41;;;;;;;12.60;7.90;;;;;;;8.74;100.00;98488.55;213405;1293;139711;-87
2024/02/22 14:18:42;;;;;;;14.40;8.20;;;;;;;8.75;100.00;98480.77;212942;1286;139827;-87
2024/02/22 14:23:46;;;;;;;15.10;7.70;;;;;;;8.78;100.00;98466.31;213762;1289;140196;-88
2024/02/22 14:28:46;;;;;;;16.20;8.20;;;;;;;8.83;100.00;98465.23;213180;1285;140258;-87
2024/02/22 14:33:47;;;;;;;14.20;7.80;;;;;;;8.86;100.00;98457.36;213659;1288;139221;-87
2024/02/22 14:38:50;;;;;;;13.40;6.60;;;;;;;8.89;100.00;98452.14;213115;1287;139733;-89
2024/02/22 14:43:53;;;;;;;12.60;7.10;;;;;;;8.90;100.00;98435.89;213845;1288;138834;-87
2024/02/22 14:48:53;;;;;;;14.60;7.20;;;;;;;8.92;100.00;98433.61;213351;1285;139713;-87
2024/02/22 14:53:54;;;;;;;14.20;7.80;;;;;;;8.95;100.00;98433.17;213753;1285;138934;-88
2024/02/22 14:58:54;;;;;;;15.80;8.50;;;;;;;8.96;100.00;98426.48;212884;1288;139766;-86
2024/02/22 15:03:55;;;;;;;17.40;8.20;;;;;;;9.00;100.00;98423.77;213600;1289;139599;-89
2024/02/22 15:08:57;;;;;;;14.10;8.80;;;;;;;9.01;100.00;98422.89;213396;1285;140091;-87
2024/02/22 15:13:58;;;;;;;12.90;8.10;;;;;;;9.01;100.00;98412.31;213941;1289;139060;-89
2024/02/22 15:18:59;;;;;;;13.50;7.30;;;;;;;9.03;100.00;98411.58;213361;1285;140914;-88
2024/02/22 15:23:59;;;;;;;16.30;7.80;;;;;;;9.03;100.00;98403.02;213924;1288;97937;-87
2024/02/22 15:29:00;;;;;;;15.00;7.90;;;;;;;9.02;100.00;98395.38;213021;1287;139598;-90
2024/02/22 15:34:00;;;;;;;17.00;8.50;;;;;;;9.00;100.00;98397.27;213554;1286;138970;-88
2024/02/22 15:39:01;;;;;;;14.00;8.10;;;;;;;9.00;100.00;98390.20;213123;1286;142305;-87
2024/02/22 15:44:01;;;;;;;13.40;7.30;;;;;;;9.01;100.00;98383.79;214222;1288;139528;-89
2024/02/22 15:49:03;;;;;;;12.30;6.50;;;;;;;9.01;100.00;98388.00;213321;1285;140003;-91
2024/02/22 15:54:04;;;;;;;14.20;7.30;;;;;;;9.01;100.00;98377.98;213986;1288;98033;-90
2024/02/22 15:59:04;;;;;;;13.70;8.30;;;;;;;9.02;100.00;98376.70;213027;1286;140305;-88
2024/02/22 16:04:06;;;;;;;17.20;9.20;;;;;;;9.02;100.00;98379.13;213319;1287;139546;-89
2024/02/22 16:09:07;;;;;;;16.20;9.00;;;;;;;9.02;100.00;98378.11;213010;1286;139938;-92
2024/02/22 16:14:08;;;;;;;18.50;9.30;;;;;;;9.01;100.00;98373.90;213699;1286;139376;-90
2024/02/22 16:19:08;;;;;;;16.70;9.70;;;;;;;9.00;100.00;98365.92;213065;1286;139966;-90
2024/02/22 16:24:09;;;;;;;17.70;9.40;;;;;;;8.98;100.00;98356.46;213868;1287;98215;-90
2024/02/22 16:29:10;;;;;;;16.30;9.30;;;;;;;8.97;100.00;98348.24;213017;1286;139744;-89
2024/02/22 16:34:12;;;;;;;16.30;9.20;;;;;;;8.95;100.00;98343.42;213855;1288;138694;-89
2024/02/22 16:39:12;;;;;;;17.40;9.60;;;;;;;8.94;100.00;98335.75;213379;1290;139975;-90
2024/02/22 16:44:14;;;;;;;17.50;9.80;;;;;;;8.92;100.00;98329.84;214036;1286;139372;-88
2024/02/22 16:49:14;;;;;;;14.90;10.30;;;;;;;8.90;100.00;98325.33;213426;1287;139962;-90
2024/02/22 16:54:15;;;;;;;19.40;9.70;;;;;;;8.88;100.00;98323.71;214533;1285;97972;-86
2024/02/22 16:59:16;;;;;;;20.10;10.40;;;;;;;8.86;100.00;98330.55;213395;1288;139959;-90
2024/02/22 17:04:17;;;;;;;15.50;9.50;;;;;;;8.84;100.00;98328.79;214132;1290;140032;-88
2024/02/22 17:09:17;;;;;;;16.60;9.30;;;;;;;8.82;100.00;98323.56;213503;1291;140102;-87
2024/02/22 17:14:18;;;;;;;20.80;10.60;;;;;;;8.80;100.00;98320.45;214016;1287;139546;-86
2024/02/22 17:19:19;;;;;;;16.10;9.20;;;;;;;8.78;100.00;98315.64;213472;1287;140251;-87
2024/02/22 17:24:21;;;;;;;17.10;9.90;;;;;;;8.75;100.00;98312.00;214106;1287;107484;-88
2024/02/22 17:29:22;;;;;;;16.40;8.90;;;;;;;8.71;100.00;98298.43;213233;1291;140029;-88
2024/02/22 17:34:24;;;;;;;21.90;10.20;;;;;;;8.70;100.00;98291.80;214175;1288;139554;-90
2024/02/22 17:39:24;;;;;;;19.10;9.70;;;;;;;8.68;100.00;98283.05;213481;1291;140570;-89
2024/02/22 17:44:25;;;;;;;20.50;10.60;;;;;;;8.65;100.00;98276.83;214241;1286;139267;-90
2024/02/22 17:49:28;;;;;;;17.40;9.60;;;;;;;8.64;100.00;98269.41;213325;1286;140796;-87
2024/02/22 17:54:28;;;;;;;17.00;10.60;;;;;;;8.61;100.00;98259.19;213910;1286;106747;-88
2024/02/22 17:59:29;;;;;;;17.70;10.10;;;;;;;8.59;100.00;98250.61;213249;1290;139937;-90
2024/02/22 18:04:30;;;;;;;18.40;10.80;;;;;;;8.56;100.00;98245.48;213666;1287;138807;-89
2024/02/22 18:09:32;;;;;;;20.40;9.80;;;;;;;8.56;100.00;98240.15;213186;1286;139914;-90
2024/02/22 18:14:33;;;;;;;19.20;11.20;;;;;;;8.56;100.00;98238.67;213705;1292;139606;-90
2024/02/22 18:19:34;;;;;;;18.40;10.40;;;;;;;8.56;100.00;98233.35;213112;1286;140072;-89
2024/02/22 18:24:35;;;;;;;19.70;11.60;;;;;;;8.55;100.00;98230.69;213847;1287;98569;-88
2024/02/22 18:29:37;;;;;;;22.20;11.20;;;;;;;8.55;100.00;98235.31;213338;1286;139940;-90
2024/02/22 18:34:38;;;;;;;21.50;11.40;;;;;;;8.54;100.00;98226.80;213989;1286;139297;-88
2024/02/22 18:39:38;;;;;;;22.50;11.50;;;;;;;8.52;100.00;98209.45;213693;1289;140275;-91
2024/02/22 18:44:40;;;;;;;19.70;10.90;;;;;;;8.50;100.00;98195.61;214136;1285;141332;-90
2024/02/22 18:49:41;;;;;;;18.60;10.10;;;;;;;8.49;100.00;98185.38;213653;1285;139730;-88
2024/02/22 18:54:41;;;;;;;18.40;10.30;;;;;;;8.49;100.00;98182.09;214240;1286;98145;-90
2024/02/22 18:59:45;;;;;;;21.60;11.30;;;;;;;8.48;100.00;98178.20;213312;1286;141720;-90
2024/02/22 19:04:45;;;;;;;23.00;12.20;;;;;;;8.49;100.00;98170.34;213752;1290;138890;-93
2024/02/22 19:09:47;;;;;;;18.50;11.20;;;;;;;8.51;100.00;98166.55;213452;1285;139553;-87
2024/02/22 19:14:50;;;;;;;21.70;11.20;;;;;;;8.51;100.00;98163.41;214095;1290;140428;-90
2024/02/22 19:19:51;;;;;;;20.90;11.40;;;;;;;8.53;100.00;98156.33;213616;1287;139929;-90
2024/02/22 19:24:51;;;;;;;22.70;11.90;;;;;;;8.53;100.00;98148.48;214124;1287;98391;-89
2024/02/22 19:29:52;;;;;;;20.00;12.30;;;;;;;8.54;100.00;98139.23;213465;1291;139599;-87
2024/02/22 19:34:52;;;;;;;24.00;12.20;;;;;;;8.54;100.00;98139.31;213954;1287;138838;-90
2024/02/22 19:39:54;;;;;;;23.60;12.50;;;;;;;8.55;100.00;98137.56;213318;1286;139696;-89
2024/02/22 19:44:54;;;;;;;23.60;12.40;;;;;;;8.57;100.00;98132.62;213925;1285;140266;-91
2024/02/22 19:49:55;;;;;;;21.40;12.20;;;;;;;8.56;100.00;98125.17;213690;1288;139564;-90
2024/02/22 19:54:55;;;;;;;22.80;11.40;;;;;;;8.57;100.00;98118.89;214287;1285;98869;-88
2024/02/22 19:59:56;;;;;;;21.00;11.50;;;;;;;8.58;100.00;98111.35;213647;1285;140243;-88
2024/02/22 20:04:57;;;;;;;19.90;11.10;;;;;;;8.59;100.00;98105.46;214214;1285;138685;-91
2024/02/22 20:09:57;;;;;;;25.30;12.10;;;;;;;8.59;100.00;98103.27;213878;1285;140373;-89
2024/02/22 20:14:58;;;;;;;21.70;11.10;;;;;;;8.60;100.00;98099.34;214394;1285;139033;-88
2024/02/22 20:19:59;;;;;;;19.70;10.80;;;;;;;8.61;100.00;98097.06;213663;1291;140068;-90
2024/02/22 20:25:00;;;;;;;18.90;11.30;;;;;;;8.62;100.00;98090.38;214377;1289;138883;-88
2024/02/22 20:30:01;;;;;;;22.50;11.50;;;;;;;8.61;100.00;98089.05;213749;1289;179241;-90
2024/02/22 20:35:02;;;;;;;25.60;12.20;;;;;;;8.62;100.00;98084.89;214245;1289;138703;-89
2024/02/22 20:40:02;;;;;;;22.00;11.70;;;;;;;8.63;100.00;98082.61;213739;1285;140015;-90
2024/02/22 20:45:04;;;;;;;20.20;11.20;;;;;;;8.63;100.00;98079.64;213956;1285;138908;-91
2024/02/22 20:50:05;;;;;;;19.70;11.90;;;;;;;8.63;100.00;98080.48;213543;1291;140332;-91
2024/02/22 20:55:09;;;;;;;23.50;11.10;;;;;;;8.63;100.00;98077.91;214078;1289;138818;-88
2024/02/22 21:00:10;;;;;;;22.70;11.40;;;;;;;8.62;100.00;98073.70;213397;1292;140263;-91
2024/02/22 21:05:10;;;;;;;17.30;10.40;;;;;;;8.61;100.00;98060.88;213631;1292;138915;-91
2024/02/22 21:10:11;;;;;;;22.20;11.40;;;;;;;8.60;100.00;98057.05;213449;1285;139657;-90
2024/02/22 21:15:11;;;;;;;21.40;11.00;;;;;;;8.59;100.00;98053.70;214447;1290;139070;-91
2024/02/22 21:20:12;;;;;;;21.70;12.80;;;;;;;8.58;100.00;98043.70;214691;1289;141614;-89
2024/02/22 21:25:12;;;;;;;20.40;11.60;;;;;;;8.56;100.00;98036.67;214181;1291;139577;-90
2024/02/22 21:30:15;;;;;;;22.80;11.50;;;;;;;8.55;100.00;98032.38;213607;1291;140110;-90
2024/02/22 21:35:15;;;;;;;19.60;11.20;;;;;;;8.53;100.00;98037.45;213722;1289;138706;-89
2024/02/22 21:40:16;;;;;;;23.50;11.60;;;;;;;8.51;100.00;98037.16;213405;1292;140160;-91
2024/02/22 21:45:17;;;;;;;18.00;10.90;;;;;;;8.47;100.00;98035.20;213828;1293;139006;-88
2024/02/22 21:50:18;;;;;;;19.80;10.50;;;;;;;8.47;100.00;98033.17;213356;1286;141183;-89
2024/02/22 21:55:18;;;;;;;20.00;10.80;;;;;;;8.47;100.00;98030.12;213934;1285;139016;-88
2024/02/22 22:00:19;;;;;;;19.80;10.80;;;;;;;8.47;100.00;98020.02;213719;1289;139922;-88
2024/02/22 22:05:23;;;;;;;20.20;10.30;;;;;;;8.46;100.00;98019.40;214146;1291;138869;-92
2024/02/22 22:10:24;;;;;;;17.90;10.20;;;;;;;8.46;100.00;98017.61;213512;1285;140246;-91
2024/02/22 22:15:24;;;;;;;19.80;11.50;;;;;;;8.46;100.00;98011.73;213937;1286;138960;-90
2024/02/22 22:20:25;;;;;;;18.70;10.60;;;;;;;8.49;100.00;98011.70;212862;1287;140230;-90
2024/02/22 22:25:25;;;;;;;19.50;10.00;;;;;;;8.50;100.00;98008.99;213495;1288;139101;-91
2024/02/22 22:30:26;;;;;;;22.10;9.90;;;;;;;8.51;100.00;98002.80;213285;1291;140046;-90
2024/02/22 22:35:26;;;;;;;19.70;10.70;;;;;;;8.52;100.00;97995.79;213673;1289;138581;-91
2024/02/22 22:40:27;;;;;;;18.40;9.00;;;;;;;8.55;100.00;97985.33;213731;1289;140171;-89
2024/02/22 22:45:27;;;;;;;21.80;10.00;;;;;;;8.57;100.00;97979.64;214256;1286;138910;-87